Time;durP1;ratioP1;P1;durP2;ratioP2;P2;SDS_P1;SDS_P2;PMS_P1;PMS_P2;Temp;Humidity;BMP_temperature;BMP_pressure;BME280_temperature;BME280_humidity;BME280_pressure;Samples;Min_cycle;Max_cycle;Signal;HPM_P1;HPM_P2
2023/04/16 07:04:04;;;;;;;;;38.75;33.75;;;;;8.22;69.86;102241.38;6230757;22;45544;-72
2023/04/16 07:06:30;;;;;;;;;41.50;36.50;;;;;8.22;69.38;102233.47;6246052;22;45227;-70
2023/04/16 07:08:56;;;;;;;;;40.50;34.50;;;;;8.33;69.74;102231.44;6245303;22;45203;-71
2023/04/16 07:11:21;;;;;;;;;26.50;25.25;;;;;8.44;69.28;102234.72;6245846;22;46433;-71
2023/04/16 07:13:46;;;;;;;;;37.75;34.25;;;;;8.57;69.13;102239.88;6245234;22;44742;-71
2023/04/16 07:16:12;;;;;;;;;35.50;32.00;;;;;8.73;69.27;102245.13;6245711;22;45477;-71
2023/04/16 07:18:37;;;;;;;;;39.50;32.50;;;;;8.76;68.88;102228.59;6245309;22;45227;-72
2023/04/16 07:21:03;;;;;;;;;33.00;26.75;;;;;9.06;68.65;102246.91;6243415;22;46077;-72
2023/04/16 07:23:29;;;;;;;;;49.25;36.75;;;;;9.22;68.78;102251.28;6245761;22;45317;-72
2023/04/16 07:25:54;;;;;;;;;33.75;31.50;;;;;9.32;67.15;102246.53;6246504;22;45183;-72
2023/04/16 07:28:19;;;;;;;;;48.00;37.75;;;;;9.53;68.16;102257.31;6243389;22;46654;-74
2023/04/16 07:30:45;;;;;;;;;34.50;31.00;;;;;9.69;68.22;102247.53;6245711;22;45283;-72
2023/04/16 07:33:10;;;;;;;;;37.25;33.25;;;;;9.82;67.29;102256.16;6245226;22;45220;-72
2023/04/16 07:35:35;;;;;;;;;34.00;30.75;;;;;9.90;67.02;102253.03;6246084;22;45210;-72
2023/04/16 07:38:01;;;;;;;;;37.50;29.75;;;;;10.05;66.35;102256.41;6245512;22;45498;-71
2023/04/16 07:40:26;;;;;;;;;32.00;28.00;;;;;10.13;65.87;102251.53;6246073;22;45318;-72
2023/04/16 07:42:52;;;;;;;;;29.75;27.25;;;;;10.29;65.67;102259.41;6245358;22;45178;-72
2023/04/16 07:45:17;;;;;;;;;34.75;31.00;;;;;10.38;63.47;102241.34;6245334;22;45158;-72
2023/04/16 07:47:44;;;;;;;;;33.50;30.50;;;;;10.59;64.97;102248.50;6245045;22;45164;-72
2023/04/16 07:50:09;;;;;;;;;31.50;25.50;;;;;10.73;65.30;102240.38;6245603;22;45525;-72
2023/04/16 07:52:36;;;;;;;;;31.75;26.25;;;;;10.80;63.73;102227.44;6246854;22;45307;-73
2023/04/16 07:55:01;;;;;;;;;31.00;29.50;;;;;10.94;63.00;102237.81;6244677;22;45319;-73
2023/04/16 07:57:26;;;;;;;;;33.75;29.00;;;;;11.21;61.78;102253.16;6247061;22;45636;-72
2023/04/16 07:59:51;;;;;;;;;35.50;29.25;;;;;11.34;63.77;102249.28;6246626;22;55265;-72
2023/04/16 08:02:17;;;;;;;;;31.25;23.00;;;;;11.58;61.31;102255.66;6244595;22;49767;-72
2023/04/16 08:04:42;;;;;;;;;30.50;29.00;;;;;11.69;61.09;102239.34;6268567;22;45305;-72
2023/04/16 08:07:08;;;;;;;;;25.00;22.25;;;;;11.96;61.42;102247.56;6277993;22;45413;-72
2023/04/16 08:09:35;;;;;;;;;29.50;22.25;;;;;12.16;61.04;102251.97;6277981;22;46032;-72
2023/04/16 08:12:01;;;;;;;;;27.25;24.00;;;;;12.41;60.06;102263.59;6277801;22;45235;-73
2023/04/16 08:14:26;;;;;;;;;21.00;18.25;;;;;12.55;56.28;102265.03;6277647;22;45173;-73
2023/04/16 08:16:52;;;;;;;;;35.75;23.50;;;;;12.68;59.13;102267.31;6278085;22;45168;-72
2023/04/16 08:19:17;;;;;;;;;27.00;24.75;;;;;12.73;59.98;102256.88;6277337;22;45248;-72
2023/04/16 08:21:43;;;;;;;;;25.50;23.75;;;;;12.93;56.96;102263.88;6278304;22;45224;-72
2023/04/16 08:24:08;;;;;;;;;33.75;27.75;;;;;13.13;56.58;102254.00;6278012;22;45240;-72
2023/04/16 08:26:33;;;;;;;;;27.50;25.00;;;;;13.41;58.99;102263.94;6278436;22;45181;-72
2023/04/16 08:28:59;;;;;;;;;24.75;20.25;;;;;13.59;54.72;102257.47;6277597;22;45942;-73
2023/04/16 08:31:24;;;;;;;;;24.75;23.50;;;;;13.82;56.90;102264.47;6278243;22;47575;-72
2023/04/16 08:33:50;;;;;;;;;24.25;23.25;;;;;14.07;57.77;102275.94;6276047;22;45248;-72
2023/04/16 08:36:15;;;;;;;;;23.25;22.75;;;;;14.27;60.01;102272.19;6278389;22;45165;-73
2023/04/16 08:38:40;;;;;;;;;23.75;23.50;;;;;14.40;53.49;102272.59;6277823;22;45315;-72
2023/04/16 08:41:10;;;;;;;;;26.00;24.50;;;;;14.43;53.40;102262.06;6250472;22;44617;-72
2023/04/16 08:43:38;;;;;;;;;24.50;22.00;;;;;14.67;53.05;102265.50;6277349;22;45214;-72
2023/04/16 08:46:04;;;;;;;;;27.00;22.50;;;;;14.80;54.13;102264.13;6278090;22;45177;-72
2023/04/16 08:48:33;;;;;;;;;20.25;20.00;;;;;15.08;56.52;102270.28;6276645;22;46102;-72
2023/04/16 08:51:00;;;;;;;;;28.00;22.25;;;;;15.17;55.07;102275.88;6277887;22;45282;-73
2023/04/16 08:53:41;;;;;;;;;26.75;21.50;;;;;15.26;53.89;102278.78;6277557;22;45273;-72
2023/04/16 08:56:10;;;;;;;;;25.50;18.00;;;;;15.35;55.28;102263.09;6278190;22;45251;-73
2023/04/16 08:58:36;;;;;;;;;31.50;25.50;;;;;15.61;49.85;102270.91;6277704;22;46121;-73
2023/04/16 09:01:02;;;;;;;;;27.75;22.25;;;;;15.92;54.11;102271.75;6276839;22;45242;-73
2023/04/16 09:03:31;;;;;;;;;25.00;22.50;;;;;16.05;50.10;102266.78;6249613;22;45268;-71
2023/04/16 09:05:58;;;;;;;;;22.00;21.25;;;;;16.19;52.59;102250.19;6277812;22;45604;-72
2023/04/16 09:08:24;;;;;;;;;20.00;19.00;;;;;16.55;49.87;102277.78;6277740;22;45974;-72
2023/04/16 09:10:50;;;;;;;;;19.33;18.33;;;;;16.85;48.61;102276.69;6278105;22;45161;-72
2023/04/16 09:13:19;;;;;;;;;18.67;15.67;;;;;17.02;44.18;102278.84;6277954;22;45161;-73
2023/04/16 09:15:45;;;;;;;;;20.33;18.00;;;;;17.19;48.36;102264.94;6276538;22;45369;-72
2023/04/16 09:18:11;;;;;;;;;22.67;18.67;;;;;17.43;47.70;102267.22;6277222;22;45429;-73
2023/04/16 09:20:37;;;;;;;;;20.33;18.00;;;;;17.72;46.58;102282.03;6277403;22;45386;-72
2023/04/16 09:23:02;;;;;;;;;18.00;18.00;;;;;17.91;48.82;102275.28;6277690;22;45382;-72
2023/04/16 09:25:33;;;;;;;;;19.00;16.00;;;;;18.08;49.57;102277.38;6274645;22;45457;-73
2023/04/16 09:27:58;;;;;;;;;14.00;13.00;;;;;18.03;45.82;102268.34;6249960;22;46091;-72
2023/04/16 09:30:26;;;;;;;;;15.67;14.67;;;;;18.26;49.37;102274.13;6277677;22;45282;-73
2023/04/16 09:33:10;;;;;;;;;14.00;12.00;;;;;18.22;46.97;102257.97;6275696;22;45350;-72
2023/04/16 09:35:45;;;;;;;;;19.33;15.67;;;;;18.19;46.14;102273.97;6277770;22;45378;-72
2023/04/16 09:38:10;;;;;;;;;17.00;15.67;;;;;18.10;43.60;102270.28;6248979;22;46104;-72
2023/04/16 09:40:35;;;;;;;;;18.67;18.67;;;;;18.14;41.42;102273.88;6277768;22;45270;-74
2023/04/16 09:43:09;;;;;;;;;18.67;16.00;;;;;18.08;45.94;102273.78;6276946;22;45323;-70
2023/04/16 09:45:49;;;;;;;;;15.00;14.00;;;;;18.03;44.53;102271.03;6277835;22;45449;-72
2023/04/16 09:48:15;;;;;;;;;18.67;16.00;;;;;18.14;45.70;102275.66;6276259;22;46022;-72
2023/04/16 09:50:50;;;;;;;;;16.33;13.67;;;;;18.24;43.20;102283.88;6277579;22;45161;-72
2023/04/16 09:53:26;;;;;;;;;19.00;16.67;;;;;18.39;43.79;102285.91;6276781;22;45230;-71
2023/04/16 09:55:55;;;;;;;;;19.33;19.00;;;;;18.50;46.42;102270.00;6277720;22;45181;-72
2023/04/16 09:58:23;;;;;;;;;22.00;19.67;;;;;18.62;41.58;102283.56;6276752;22;45918;-72
2023/04/16 10:00:48;;;;;;;;;17.00;13.67;;;;;18.67;42.70;102271.16;6277200;22;45340;-73
2023/04/16 10:03:14;;;;;;;;;14.67;13.33;;;;;18.77;40.30;102277.59;6276578;22;45241;-72
2023/04/16 10:05:40;;;;;;;;;15.67;15.67;;;;;18.88;39.40;102270.59;6276938;22;45437;-72
2023/04/16 10:08:16;;;;;;;;;14.67;12.00;;;;;19.01;41.12;102272.53;6276459;22;46399;-72
2023/04/16 10:10:41;;;;;;;;;16.00;15.00;;;;;19.08;44.57;102262.81;6277837;22;45238;-72
2023/04/16 10:13:07;;;;;;;;;15.00;13.33;;;;;19.07;38.61;102285.13;6277045;22;45449;-72
2023/04/16 10:15:33;;;;;;;;;14.67;14.67;;;;;19.07;38.87;102265.47;6276847;22;45253;-73
2023/04/16 10:17:59;;;;;;;;;13.00;12.33;;;;;19.35;42.92;102282.78;6249053;22;47106;-72
2023/04/16 10:20:25;;;;;;;;;13.67;12.00;;;;;19.48;42.75;102281.16;6277624;22;45520;-73
2023/04/16 10:22:52;;;;;;;;;15.00;12.67;;;;;19.52;39.25;102283.91;6277372;22;45260;-73
2023/04/16 10:25:19;;;;;;;;;17.00;16.00;;;;;19.66;40.48;102284.06;6248914;22;45486;-73
2023/04/16 10:27:44;;;;;;;;;14.00;14.00;;;;;19.68;38.54;102258.16;6277329;22;46094;-70
2023/04/16 10:30:12;;;;;;;;;14.67;12.67;;;;;19.81;41.31;102276.19;6277382;22;45180;-74
2023/04/16 10:32:37;;;;;;;;;9.00;6.67;;;;;19.63;40.16;102257.16;6249174;22;45406;-72
2023/04/16 10:35:04;;;;;;;;;16.00;14.00;;;;;19.68;37.50;102277.84;6275582;22;45228;-72
2023/04/16 10:37:30;;;;;;;;;12.67;12.00;;;;;19.74;39.61;102276.09;6249520;22;46985;-73
2023/04/16 10:39:56;;;;;;;;;10.00;9.67;;;;;19.79;37.08;102269.00;6275180;22;45315;-73
2023/04/16 10:42:22;;;;;;;;;14.00;11.00;;;;;19.95;40.85;102270.06;6276991;22;45459;-72
2023/04/16 10:44:47;;;;;;;;;12.67;12.00;;;;;19.83;38.87;102266.38;6276839;22;45182;-72
2023/04/16 10:47:13;;;;;;;;;10.00;9.00;;;;;19.80;38.81;102276.16;6277129;22;45328;-72
2023/04/16 10:49:39;;;;;;;;;16.00;12.67;;;;;19.72;40.00;102267.13;6276967;22;45236;-72
2023/04/16 10:52:18;;;;;;;;;14.33;13.00;;;;;19.63;39.05;102279.56;6277923;22;45283;-72
2023/04/16 10:54:45;;;;;;;;;12.67;12.67;;;;;19.71;39.11;102276.06;6276739;22;45254;-71
2023/04/16 10:57:18;;;;;;;;;12.00;11.00;;;;;19.74;38.81;102268.94;6277055;22;45203;-72
2023/04/16 10:59:47;;;;;;;;;12.00;11.33;;;;;19.84;37.69;102276.22;6277307;22;45216;-72
2023/04/16 11:02:15;;;;;;;;;16.00;15.67;;;;;19.90;38.58;102262.84;6277324;22;45294;-72
2023/04/16 11:04:47;;;;;;;;;14.67;11.67;;;;;19.98;38.36;102270.09;6276353;22;45472;-71
2023/04/16 11:07:30;;;;;;;;;14.00;11.00;;;;;19.95;38.29;102264.69;6249092;22;46917;-72
2023/04/16 11:10:00;;;;;;;;;12.33;11.33;;;;;19.88;36.96;102263.72;6277468;22;45264;-69
2023/04/16 11:12:36;;;;;;;;;17.00;13.67;;;;;19.87;37.56;102257.47;6276912;22;45303;-70
2023/04/16 11:15:05;;;;;;;;;12.00;10.00;;;;;19.96;38.44;102266.47;6276599;22;45219;-71
2023/04/16 11:17:44;;;;;;;;;12.00;12.00;;;;;20.04;38.51;102246.88;6248754;22;46492;-72
2023/04/16 11:20:15;;;;;;;;;9.00;7.00;;;;;20.22;36.31;102256.88;6277083;22;45245;-73
2023/04/16 11:22:41;;;;;;;;;10.33;8.00;;;;;20.40;35.86;102269.53;6249492;22;45304;-71
2023/04/16 11:25:08;;;;;;;;;8.00;8.00;;;;;20.36;35.53;102243.53;6276988;22;45281;-70
2023/04/16 11:27:34;;;;;;;;;10.67;9.00;;;;;20.25;34.35;102232.72;6275352;22;46984;-71
2023/04/16 11:30:03;;;;;;;;;13.67;12.33;;;;;20.25;35.52;102255.97;6277501;22;45280;-71
2023/04/16 11:32:31;;;;;;;;;8.00;8.00;;;;;20.26;34.69;102257.78;6277676;22;45184;-70
2023/04/16 11:34:56;;;;;;;;;9.33;8.67;;;;;20.31;36.26;102256.03;6277387;22;45438;-69
2023/04/16 11:37:33;;;;;;;;;9.67;9.67;;;;;20.23;36.61;102249.72;6278163;22;45360;-70
2023/04/16 11:39:58;;;;;;;;;10.33;9.33;;;;;20.19;34.46;102232.66;6278078;22;45271;-70
2023/04/16 11:42:25;;;;;;;;;8.67;8.67;;;;;20.49;36.58;102245.41;6277978;22;45463;-71
2023/04/16 11:44:56;;;;;;;;;8.33;8.00;;;;;20.55;34.74;102248.16;6277908;22;45340;-70
2023/04/16 11:47:23;;;;;;;;;9.33;9.33;;;;;20.56;33.66;102249.97;6277401;22;46038;-70
2023/04/16 11:49:48;;;;;;;;;6.33;5.00;;;;;20.42;35.96;102224.78;6276523;22;45291;-71
2023/04/16 11:52:27;;;;;;;;;10.00;8.00;;;;;20.50;36.27;102230.19;6248823;22;45335;-70
2023/04/16 11:54:52;;;;;;;;;10.67;9.00;;;;;20.59;33.52;102234.78;6277731;22;45279;-73
2023/04/16 11:57:25;;;;;;;;;8.67;7.33;;;;;20.74;34.44;102237.53;6277348;22;45569;-76
2023/04/16 11:59:51;;;;;;;;;8.00;8.00;;;;;20.85;35.31;102234.91;6277702;22;45252;-73
2023/04/16 12:02:16;;;;;;;;;8.00;6.67;;;;;21.01;34.29;102234.97;6277656;22;45847;-76
2023/04/16 12:04:41;;;;;;;;;7.00;5.67;;;;;21.13;34.03;102231.44;6276317;22;45224;-73
2023/04/16 12:07:11;;;;;;;;;6.33;6.33;;;;;21.04;34.82;102220.66;6277183;22;45898;-73
2023/04/16 12:09:41;;;;;;;;;2.00;2.00;;;;;21.08;33.90;102226.94;6276513;22;45377;-74
2023/04/16 12:12:30;;;;;;;;;7.00;6.33;;;;;21.26;34.19;102227.00;6278057;22;45194;-73
2023/04/16 12:14:58;;;;;;;;;7.00;6.33;;;;;21.25;33.52;102209.06;6249883;22;45451;-74
2023/04/16 12:17:23;;;;;;;;;3.00;1.67;;;;;21.17;32.51;102216.19;6277714;22;45385;-74
2023/04/16 12:19:56;;;;;;;;;4.00;4.00;;;;;21.08;32.84;102206.31;6277654;22;45227;-74
2023/04/16 12:22:33;;;;;;;;;8.00;6.67;;;;;21.11;33.63;102217.06;6250052;22;45332;-72
2023/04/16 12:25:06;;;;;;;;;6.00;5.00;;;;;21.12;33.79;102226.06;6277684;22;45297;-72
2023/04/16 12:27:45;;;;;;;;;6.33;5.00;;;;;21.07;34.06;102223.34;6278024;22;46230;-72
2023/04/16 12:30:12;;;;;;;;;4.33;4.33;;;;;21.15;32.40;102223.38;6276771;22;45173;-71
2023/04/16 12:32:40;;;;;;;;;4.67;4.67;;;;;21.24;34.18;102216.22;6277088;22;45193;-71
2023/04/16 12:35:06;;;;;;;;;5.67;5.67;;;;;21.60;33.92;102228.00;6277492;22;45245;-72
2023/04/16 12:37:31;;;;;;;;;5.67;3.00;;;;;21.64;30.14;102216.34;6277536;22;45266;-73
2023/04/16 12:39:56;;;;;;;;;5.00;4.00;;;;;21.66;31.85;102211.84;6249959;22;45188;-73
2023/04/16 12:42:22;;;;;;;;;4.67;3.67;;;;;21.72;32.51;102204.69;6277983;22;45411;-73
2023/04/16 12:44:47;;;;;;;;;13.00;10.00;;;;;21.84;32.32;102204.69;6250039;22;45641;-73
2023/04/16 12:47:12;;;;;;;;;7.33;4.00;;;;;21.75;31.04;102218.16;6277778;22;45375;-73
2023/04/16 12:49:38;;;;;;;;;4.33;4.33;;;;;21.71;32.27;102202.91;6277293;22;45288;-73
2023/04/16 12:52:03;;;;;;;;;5.67;5.00;;;;;21.77;32.23;102206.47;6250490;22;45210;-73
2023/04/16 12:54:30;;;;;;;;;6.00;5.00;;;;;21.72;30.69;102202.00;6277254;22;45451;-72
2023/04/16 12:56:56;;;;;;;;;7.33;4.00;;;;;21.87;31.51;102205.59;6276475;22;45746;-72
2023/04/16 12:59:21;;;;;;;;;8.67;7.00;;;;;21.81;31.76;102193.91;6270977;22;45235;-72
2023/04/16 13:01:47;;;;;;;;;4.00;4.00;;;;;22.02;29.52;102191.22;6274326;22;45397;-72
2023/04/16 13:04:12;;;;;;;;;5.00;4.00;;;;;22.14;30.33;102193.00;6273127;22;47132;-72
2023/04/16 13:06:38;;;;;;;;;6.00;5.00;;;;;22.37;31.55;102205.56;6274674;22;46010;-73
2023/04/16 13:09:04;;;;;;;;;6.33;4.67;;;;;22.51;31.43;102201.03;6245830;22;45675;-72
2023/04/16 13:11:29;;;;;;;;;5.33;4.67;;;;;22.62;30.52;102199.22;6246875;22;45401;-72
2023/04/16 13:13:55;;;;;;;;;5.00;5.00;;;;;22.61;29.23;102196.53;6275081;22;45545;-73
2023/04/16 13:16:20;;;;;;;;;5.33;5.33;;;;;22.69;31.10;102192.00;6275476;22;45849;-72
2023/04/16 13:18:45;;;;;;;;;3.00;3.00;;;;;22.74;30.37;102201.88;6274328;22;45569;-72
2023/04/16 13:21:11;;;;;;;;;3.67;3.67;;;;;22.68;29.97;102174.91;6275472;22;45650;-72
2023/04/16 13:23:36;;;;;;;;;5.67;4.67;;;;;22.82;31.41;102188.34;6274539;22;45343;-72
2023/04/16 13:26:02;;;;;;;;;7.33;5.00;;;;;22.76;30.47;102177.59;6275605;22;45352;-73
2023/04/16 13:28:27;;;;;;;;;5.00;5.00;;;;;22.59;31.32;102190.25;6275165;22;45311;-72
2023/04/16 13:30:53;;;;;;;;;5.67;3.67;;;;;22.58;29.66;102191.16;6249906;22;45443;-73
2023/04/16 13:33:20;;;;;;;;;6.67;6.00;;;;;22.62;31.81;102171.38;6275166;22;46080;-72
2023/04/16 13:35:46;;;;;;;;;6.67;6.67;;;;;22.68;30.61;102172.22;6277768;22;45219;-72
2023/04/16 13:38:12;;;;;;;;;5.00;5.00;;;;;22.76;30.93;102177.59;6277594;22;45233;-72
2023/04/16 13:40:37;;;;;;;;;6.25;4.00;;;;;22.78;30.10;102163.22;6278058;22;45766;-73
2023/04/16 13:43:02;;;;;;;;;3.67;3.67;;;;;22.87;30.16;102170.34;6277188;22;45339;-73
2023/04/16 13:45:28;;;;;;;;;7.67;6.00;;;;;22.84;31.62;102158.69;6277435;22;48416;-73
2023/04/16 13:47:53;;;;;;;;;5.33;4.33;;;;;22.87;30.69;102158.69;6276861;22;45344;-71
2023/04/16 13:50:19;;;;;;;;;6.67;6.00;;;;;23.05;30.97;102168.50;6277178;22;45156;-72
2023/04/16 13:52:44;;;;;;;;;5.00;5.00;;;;;22.92;30.20;102162.25;6276960;22;45401;-72
2023/04/16 13:55:12;;;;;;;;;9.67;7.00;;;;;22.84;30.70;102153.31;6249295;22;46507;-72
2023/04/16 13:57:38;;;;;;;;;5.33;5.33;;;;;22.94;30.42;102179.31;6276816;22;45382;-72
2023/04/16 14:00:04;;;;;;;;;7.00;5.00;;;;;22.69;30.85;102175.84;6277764;22;45240;-72
2023/04/16 14:02:29;;;;;;;;;6.67;4.67;;;;;22.52;29.20;102166.00;6271833;22;45477;-72
2023/04/16 14:04:54;;;;;;;;;5.33;4.67;;;;;22.34;29.60;102163.34;6271377;22;46112;-72
2023/04/16 14:07:24;;;;;;;;;7.67;6.67;;;;;22.13;30.02;102169.69;6273861;22;45279;-71
2023/04/16 14:09:49;;;;;;;;;7.67;6.00;;;;;21.79;29.96;102137.41;6272281;22;45228;-71
2023/04/16 14:12:15;;;;;;;;;3.67;3.67;;;;;21.84;31.49;102161.59;6273131;22;45367;-71
2023/04/16 14:14:40;;;;;;;;;4.00;4.00;;;;;21.72;31.25;102175.97;6274717;22;45382;-71
2023/04/16 14:17:06;;;;;;;;;5.67;4.33;;;;;21.65;31.41;102160.75;6275684;22;45339;-71
2023/04/16 14:19:31;;;;;;;;;7.00;6.00;;;;;21.59;30.43;102148.19;6274416;22;45283;-71
2023/04/16 14:21:57;;;;;;;;;4.00;4.00;;;;;21.68;30.92;102160.75;6274999;22;45428;-71
2023/04/16 14:24:22;;;;;;;;;3.67;3.67;;;;;21.74;31.67;102168.81;6274773;22;46148;-74
2023/04/16 14:26:47;;;;;;;;;3.67;3.67;;;;;21.83;30.77;102165.22;6276410;22;45279;-73
2023/04/16 14:29:13;;;;;;;;;5.33;4.00;;;;;21.96;32.02;102158.00;6276809;22;45331;-73
2023/04/16 14:31:38;;;;;;;;;6.67;5.67;;;;;21.87;31.75;102153.53;6276158;22;45288;-73
2023/04/16 14:34:03;;;;;;;;;5.00;5.00;;;;;21.78;31.51;102167.88;6274322;22;46449;-72
2023/04/16 14:36:30;;;;;;;;;4.67;4.67;;;;;21.71;30.71;102149.06;6275848;22;45220;-73
2023/04/16 14:38:55;;;;;;;;;7.00;4.33;;;;;21.79;31.65;102155.31;6247806;22;45333;-73
2023/04/16 14:41:20;;;;;;;;;5.67;4.00;;;;;21.66;30.65;102163.41;6276635;22;45444;-73
2023/04/16 14:43:46;;;;;;;;;4.67;4.67;;;;;21.57;31.23;102154.47;6275747;22;46049;-72
2023/04/16 14:46:12;;;;;;;;;4.67;4.67;;;;;21.52;32.28;102141.00;6276728;22;45602;-72
2023/04/16 14:48:37;;;;;;;;;5.67;4.33;;;;;21.32;31.77;102142.75;6275266;22;45542;-72
2023/04/16 14:51:03;;;;;;;;;6.00;6.00;;;;;21.20;31.26;102157.03;6274739;22;45221;-72
2023/04/16 14:53:28;;;;;;;;;6.00;4.67;;;;;21.20;32.33;102140.91;6275675;22;45232;-72
2023/04/16 14:55:57;;;;;;;;;5.00;5.00;;;;;21.21;31.68;102146.28;6276218;22;45216;-72
2023/04/16 14:58:22;;;;;;;;;7.33;6.00;;;;;21.22;32.76;102149.88;6247406;22;45587;-72
2023/04/16 15:00:47;;;;;;;;;7.33;6.67;;;;;21.21;32.09;102150.78;6275633;22;45575;-73
2023/04/16 15:03:13;;;;;;;;;7.67;7.33;;;;;21.16;31.71;102139.13;6246492;22;47251;-72
2023/04/16 15:05:38;;;;;;;;;7.00;5.00;;;;;21.32;32.40;102154.38;6273556;22;45261;-72
2023/04/16 15:08:04;;;;;;;;;4.33;4.00;;;;;21.27;32.96;102141.81;6273478;22;45291;-72
2023/04/16 15:10:30;;;;;;;;;3.67;3.67;;;;;21.17;32.27;102148.97;6271493;22;45293;-72
2023/04/16 15:12:55;;;;;;;;;6.00;5.00;;;;;21.12;32.62;102142.72;6240120;22;47873;-70
2023/04/16 15:15:21;;;;;;;;;7.00;5.67;;;;;20.92;32.42;102129.19;6242785;22;45302;-70
2023/04/16 15:17:46;;;;;;;;;6.33;4.67;;;;;20.88;32.08;102149.78;6243932;22;45830;-70
2023/04/16 15:20:12;;;;;;;;;6.33;6.33;;;;;20.62;32.73;102108.50;6273451;22;45359;-70
2023/04/16 15:22:37;;;;;;;;;8.00;8.00;;;;;20.63;32.68;102140.75;6272243;22;45803;-71
2023/04/16 15:25:05;;;;;;;;;5.00;5.00;;;;;20.60;31.94;102139.84;6271822;22;45175;-73
2023/04/16 15:27:30;;;;;;;;;6.67;6.67;;;;;20.61;33.08;102122.81;6273702;22;45751;-70
2023/04/16 15:29:55;;;;;;;;;5.33;5.33;;;;;20.66;32.65;102138.06;6274442;22;45225;-71
2023/04/16 15:32:21;;;;;;;;;7.67;6.33;;;;;20.51;33.32;102127.22;6273283;22;50507;-71
2023/04/16 15:34:46;;;;;;;;;8.67;7.67;;;;;20.59;32.86;102136.25;6274729;22;45243;-71
2023/04/16 15:37:11;;;;;;;;;6.00;5.33;;;;;20.56;32.82;102126.41;6247086;22;45230;-70
2023/04/16 15:39:37;;;;;;;;;6.00;5.67;;;;;20.72;32.44;102142.56;6274035;22;45229;-71
2023/04/16 15:42:06;;;;;;;;;7.00;5.67;;;;;20.56;33.37;102121.03;6246143;22;47434;-71
2023/04/16 15:44:32;;;;;;;;;8.00;7.00;;;;;20.55;32.58;102138.00;6246015;22;45321;-71
2023/04/16 15:46:57;;;;;;;;;4.33;4.33;;;;;20.53;33.07;102131.75;6273153;22;45592;-72
2023/04/16 15:49:23;;;;;;;;;5.00;5.00;;;;;20.49;33.14;102137.06;6273987;22;45161;-71
2023/04/16 15:51:49;;;;;;;;;6.00;6.00;;;;;20.46;32.75;102134.38;6274120;22;45315;-71
2023/04/16 15:54:16;;;;;;;;;6.33;5.00;;;;;20.35;32.93;102121.78;6271887;22;45247;-71
2023/04/16 15:56:42;;;;;;;;;6.33;5.67;;;;;20.33;33.27;102137.00;6273733;22;45690;-72
2023/04/16 15:59:08;;;;;;;;;6.00;4.00;;;;;20.19;33.21;102127.94;6273330;22;45278;-73
2023/04/16 16:01:33;;;;;;;;;4.67;4.67;;;;;20.09;33.54;102134.16;6273742;22;45306;-72
2023/04/16 16:03:58;;;;;;;;;6.00;4.00;;;;;19.90;32.79;102135.81;6272443;22;45376;-70
2023/04/16 16:06:25;;;;;;;;;4.67;4.33;;;;;19.83;33.48;102131.31;6246549;22;45335;-72
2023/04/16 16:08:53;;;;;;;;;5.67;5.33;;;;;19.66;32.55;102115.06;6274446;22;45307;-73
2023/04/16 16:11:18;;;;;;;;;6.00;6.00;;;;;19.63;33.45;102132.03;6271839;22;45287;-72
2023/04/16 16:13:43;;;;;;;;;7.33;6.33;;;;;19.57;33.86;102125.69;6275373;22;45486;-71
2023/04/16 16:16:09;;;;;;;;;7.67;5.00;;;;;19.41;32.99;102135.41;6250328;22;45264;-73
2023/04/16 16:18:35;;;;;;;;;6.33;5.00;;;;;19.25;34.00;102134.34;6277020;22;45235;-72
2023/04/16 16:21:01;;;;;;;;;5.67;4.33;;;;;19.07;34.61;102126.09;6277416;22;46417;-72
2023/04/16 16:23:26;;;;;;;;;6.00;5.67;;;;;18.98;34.59;102133.16;6277820;22;45397;-71
2023/04/16 16:25:51;;;;;;;;;5.00;5.00;;;;;18.86;34.62;102113.38;6278669;22;45276;-72
2023/04/16 16:28:17;;;;;;;;;7.00;4.67;;;;;18.95;35.00;102137.59;6277827;22;45228;-72
2023/04/16 16:30:43;;;;;;;;;7.00;6.00;;;;;18.93;34.78;102126.88;6278200;22;45225;-71
2023/04/16 16:33:09;;;;;;;;;5.33;4.67;;;;;18.84;34.94;102128.53;6276573;22;45239;-72
2023/04/16 16:35:34;;;;;;;;;5.33;4.00;;;;;18.73;34.39;102125.69;6278299;22;45315;-72
2023/04/16 16:38:00;;;;;;;;;1.67;1.67;;;;;18.81;35.28;102124.03;6277878;22;45423;-72
2023/04/16 16:40:26;;;;;;;;;6.67;5.00;;;;;18.80;34.98;102132.06;6276434;22;45268;-72
2023/04/16 16:42:51;;;;;;;;;3.67;3.67;;;;;18.67;34.68;102121.16;6249933;22;45268;-71
2023/04/16 16:45:17;;;;;;;;;6.00;5.00;;;;;18.53;35.11;102112.06;6250483;22;45398;-71
2023/04/16 16:47:42;;;;;;;;;7.00;6.00;;;;;18.51;35.27;102119.16;6277433;22;45428;-71
2023/04/16 16:50:10;;;;;;;;;4.67;4.67;;;;;18.58;35.39;102137.13;6277510;22;52431;-71
2023/04/16 16:52:35;;;;;;;;;4.00;4.00;;;;;18.45;34.41;102122.66;6277740;22;45290;-71
2023/04/16 16:55:01;;;;;;;;;5.33;5.33;;;;;18.41;34.85;102126.19;6276484;22;45178;-71
2023/04/16 16:57:26;;;;;;;;;9.00;7.67;;;;;18.37;34.89;102136.81;6278088;22;45339;-71
2023/04/16 16:59:53;;;;;;;;;4.33;3.00;;;;;18.27;34.99;102134.03;6278256;22;45309;-71
2023/04/16 17:02:20;;;;;;;;;4.00;3.00;;;;;18.15;34.70;102139.22;6250366;22;45497;-72
2023/04/16 17:04:46;;;;;;;;;6.33;3.67;;;;;18.10;34.94;102143.59;6277848;22;45336;-71
2023/04/16 17:07:11;;;;;;;;;4.33;4.33;;;;;17.97;35.41;102120.22;6278075;22;45156;-71
2023/04/16 17:09:38;;;;;;;;;6.00;6.00;;;;;17.94;35.40;102106.78;6276090;22;45313;-72
2023/04/16 17:12:04;;;;;;;;;4.33;4.00;;;;;17.84;35.36;102109.34;6277935;22;45196;-72
2023/04/16 17:14:31;;;;;;;;;5.00;5.00;;;;;17.83;35.37;102122.66;6277671;22;45270;-71
2023/04/16 17:16:56;;;;;;;;;8.00;5.33;;;;;17.89;35.74;102125.44;6250052;22;46073;-72
2023/04/16 17:19:22;;;;;;;;;6.33;5.33;;;;;17.78;35.48;102132.34;6277180;22;46243;-72
2023/04/16 17:21:47;;;;;;;;;3.67;3.67;;;;;17.72;35.64;102124.25;6250142;22;45232;-72
2023/04/16 17:24:12;;;;;;;;;7.33;5.00;;;;;17.65;35.78;102139.28;6277893;22;45769;-72
2023/04/16 17:26:39;;;;;;;;;3.00;3.00;;;;;17.62;36.63;102134.78;6277757;22;45447;-71
2023/04/16 17:29:05;;;;;;;;;4.33;4.33;;;;;17.58;36.25;102145.41;6249880;22;47000;-72
2023/04/16 17:31:30;;;;;;;;;2.67;2.67;;;;;17.35;36.20;102119.16;6277815;22;45212;-72
2023/04/16 17:33:55;;;;;;;;;3.67;3.67;;;;;17.25;36.07;102116.31;6277626;22;45205;-72
2023/04/16 17:36:21;;;;;;;;;3.00;3.00;;;;;17.27;36.12;102134.16;6277931;22;45233;-72
2023/04/16 17:38:47;;;;;;;;;3.00;3.00;;;;;17.12;36.41;102129.44;6277662;22;45298;-73
2023/04/16 17:41:12;;;;;;;;;2.00;2.00;;;;;17.10;36.20;102146.31;6250130;22;45241;-71
2023/04/16 17:43:38;;;;;;;;;4.33;3.33;;;;;16.95;36.67;102145.16;6277302;22;45225;-72
2023/04/16 17:46:03;;;;;;;;;2.00;2.00;;;;;16.85;36.62;102148.50;6249886;22;45975;-71
2023/04/16 17:48:29;;;;;;;;;1.00;1.00;;;;;16.65;36.97;102140.06;6277401;22;46199;-71
2023/04/16 17:50:54;;;;;;;;;4.00;4.00;;;;;16.52;37.25;102146.94;6276174;22;45110;-71
2023/04/16 17:53:20;;;;;;;;;3.00;2.33;;;;;16.37;37.36;102143.00;6278193;22;45252;-72
2023/04/16 17:55:52;;;;;;;;;4.00;4.00;;;;;16.24;37.41;102139.16;6277458;22;45859;-71
2023/04/16 17:58:18;;;;;;;;;3.00;3.00;;;;;16.14;37.19;102142.50;6277132;22;45246;-72
2023/04/16 18:00:44;;;;;;;;;4.00;4.00;;;;;15.96;37.70;102126.94;6277107;22;45142;-72
2023/04/16 18:03:11;;;;;;;;;3.33;3.33;;;;;15.98;37.41;102141.22;6277311;22;45206;-72
2023/04/16 18:05:36;;;;;;;;;6.00;4.33;;;;;15.76;38.16;102127.38;6277835;22;45145;-71
2023/04/16 18:08:01;;;;;;;;;4.00;4.00;;;;;15.77;37.52;102150.53;6277227;22;45319;-71
2023/04/16 18:10:30;;;;;;;;;5.67;4.00;;;;;15.70;38.61;102156.56;6250368;22;46564;-71
2023/04/16 18:12:55;;;;;;;;;6.00;5.00;;;;;15.65;38.89;102160.81;6249938;22;45323;-72
2023/04/16 18:15:21;;;;;;;;;4.67;4.67;;;;;15.57;38.77;102154.41;6277651;22;45366;-72
2023/04/16 18:17:46;;;;;;;;;2.67;2.67;;;;;15.35;39.03;102135.22;6249397;22;47411;-71
2023/04/16 18:20:15;;;;;;;;;5.00;5.00;;;;;15.40;39.16;102157.56;6277685;22;45202;-72